Time;durP1;ratioP1;P1;durP2;ratioP2;P2;SDS_P1;SDS_P2;PMS_P1;PMS_P2;Temp;Humidity;BMP_temperature;BMP_pressure;BME280_temperature;BME280_humidity;BME280_pressure;Samples;Min_cycle;Max_cycle;Signal;HPM_P1;HPM_P2
2024/04/08 00:00:16;;;;;;;0.10;0.10;;;;;;;14.35;58.55;101995.81;5354435;26;19996;-93
2024/04/08 00:02:42;;;;;;;0.20;0.20;;;;;;;14.30;58.83;102000.34;5382803;26;20033;-92
2024/04/08 00:05:07;;;;;;;0.10;0.10;;;;;;;14.34;58.94;102004.50;5353418;26;20000;-92
2024/04/08 00:07:33;;;;;;;0.10;0.10;;;;;;;14.29;59.58;102008.22;5353634;26;20015;-92
2024/04/08 00:09:59;;;;;;;0.10;0.10;;;;;;;14.39;58.77;102008.69;5353728;26;19996;-92
2024/04/08 00:12:24;;;;;;;0.10;0.10;;;;;;;14.36;58.84;102020.06;5353331;26;19996;-92
2024/04/08 00:14:50;;;;;;;0.10;0.10;;;;;;;14.23;58.87;102004.09;5353377;26;20004;-91
2024/04/08 00:17:15;;;;;;;0.20;0.20;;;;;;;14.27;58.83;102005.69;5382608;26;19996;-92
2024/04/08 00:19:41;;;;;;;0.10;0.10;;;;;;;14.31;58.30;102012.44;5412364;26;20015;-92
2024/04/08 00:22:07;;;;;;;0.17;0.17;;;;;;;14.28;58.46;102001.31;5353337;26;20010;-93
2024/04/08 00:24:32;;;;;;;0.13;0.13;;;;;;;14.20;58.55;101993.84;5324492;26;20006;-92
2024/04/08 00:26:58;;;;;;;0.10;0.10;;;;;;;14.18;58.98;102007.84;5352237;26;20499;-93
2024/04/08 00:29:23;;;;;;;0.10;0.10;;;;;;;14.11;59.95;102011.59;5383627;26;20392;-93
2024/04/08 00:31:49;;;;;;;0.10;0.10;;;;;;;13.90;58.82;101997.72;5324111;26;20066;-93
2024/04/08 00:34:15;;;;;;;0.10;0.10;;;;;;;13.86;58.69;102006.53;5382072;26;20046;-92
2024/04/08 00:36:42;;;;;;;0.10;0.10;;;;;;;13.74;58.22;102007.88;5352798;26;19996;-92
2024/04/08 00:39:07;;;;;;;0.20;0.20;;;;;;;13.68;58.17;102010.75;5412000;26;19996;-91
2024/04/08 00:41:33;;;;;;;0.10;0.10;;;;;;;13.54;57.74;102002.63;5352892;26;20008;-92
2024/04/08 00:43:59;;;;;;;0.10;0.10;;;;;;;13.49;58.28;102005.44;5383921;26;20015;-92
2024/04/08 00:46:24;;;;;;;0.10;0.10;;;;;;;13.51;58.40;102007.97;5352746;26;20004;-91
2024/04/08 00:48:51;;;;;;;0.13;0.13;;;;;;;13.49;58.51;101995.03;5352734;26;20073;-91
2024/04/08 00:51:17;;;;;;;0.10;0.10;;;;;;;13.46;58.52;102005.53;5353268;26;20020;-92
2024/04/08 00:53:42;;;;;;;0.10;0.10;;;;;;;13.35;59.46;102013.75;5412161;26;20167;-92
2024/04/08 00:56:08;;;;;;;0.10;0.10;;;;;;;13.23;59.63;102009.03;5352454;26;19997;-93
2024/04/08 00:58:34;;;;;;;0.20;0.20;;;;;;;13.05;60.11;101994.94;5352678;26;19996;-92
2024/04/08 01:00:59;;;;;;;0.10;0.10;;;;;;;13.06;59.64;102003.56;5381887;26;20011;-93
2024/04/08 01:03:25;;;;;;;0.10;0.10;;;;;;;12.98;60.21;102000.41;5352631;26;20011;-92
2024/04/08 01:05:51;;;;;;;0.10;0.10;;;;;;;12.93;60.33;102001.44;5352412;26;20015;-92
2024/04/08 01:08:16;;;;;;;0.20;0.20;;;;;;;12.78;60.62;101991.63;5352707;26;20352;-92
2024/04/08 01:10:42;;;;;;;0.10;0.10;;;;;;;12.75;61.00;102007.28;5352170;26;20007;-92
2024/04/08 01:13:07;;;;;;;0.10;0.10;;;;;;;12.67;60.97;101992.88;5352569;26;20007;-93
2024/04/08 01:15:33;;;;;;;0.20;0.20;;;;;;;12.60;61.74;102018.25;5381699;26;20003;-92
2024/04/08 01:17:58;;;;;;;0.10;0.10;;;;;;;12.68;60.81;102016.19;5323780;26;20007;-91
2024/04/08 01:20:24;;;;;;;0.10;0.10;;;;;;;12.56;61.77;102020.06;5323718;26;19996;-94
2024/04/08 01:22:49;;;;;;;0.10;0.10;;;;;;;12.53;62.31;102014.16;5323673;26;20000;-92
2024/04/08 01:25:15;;;;;;;0.10;0.10;;;;;;;12.60;60.95;102013.06;5352201;26;20000;-92
2024/04/08 01:27:40;;;;;;;0.10;0.10;;;;;;;12.44;62.14;102022.25;5381403;26;20004;-91
2024/04/08 01:30:06;;;;;;;0.20;0.20;;;;;;;12.49;62.20;102012.59;5323724;26;20011;-92
2024/04/08 01:32:32;;;;;;;0.10;0.10;;;;;;;12.45;61.68;102013.56;5352457;26;20072;-91
2024/04/08 01:34:57;;;;;;;0.10;0.10;;;;;;;12.29;62.31;101998.53;5323117;26;20004;-93
2024/04/08 01:37:23;;;;;;;0.20;0.20;;;;;;;12.28;62.45;102008.94;5352013;26;20000;-93
2024/04/08 01:39:48;;;;;;;0.10;0.10;;;;;;;12.33;62.12;102026.06;5322796;26;19996;-92
2024/04/08 01:42:14;;;;;;;0.10;0.10;;;;;;;12.34;62.20;102016.53;5351994;26;20000;-91
2024/04/08 01:44:40;;;;;;;0.10;0.10;;;;;;;12.28;62.87;102016.72;5323085;26;20315;-92
2024/04/08 01:47:05;;;;;;;0.10;0.10;;;;;;;12.29;62.78;102016.72;5351840;26;20368;-91
2024/04/08 01:49:31;;;;;;;0.10;0.10;;;;;;;12.25;62.61;102011.66;5323496;26;20009;-93
2024/04/08 01:51:56;;;;;;;0.10;0.10;;;;;;;12.25;62.36;102003.88;5351794;26;20006;-91
2024/04/08 01:54:22;;;;;;;0.10;0.10;;;;;;;12.31;62.51;102009.72;5380500;26;20000;-92
2024/04/08 01:56:47;;;;;;;0.17;0.17;;;;;;;12.34;62.52;102013.94;5351865;26;20000;-92
2024/04/08 01:59:13;;;;;;;0.10;0.10;;;;;;;12.38;62.41;102004.28;5352025;26;20008;-91
2024/04/08 02:01:39;;;;;;;0.10;0.10;;;;;;;12.35;62.77;102003.50;5322775;26;20008;-91
2024/04/08 02:04:04;;;;;;;0.10;0.10;;;;;;;12.33;62.38;101994.94;5323010;26;20121;-93
2024/04/08 02:06:30;;;;;;;0.10;0.10;;;;;;;12.35;62.72;102003.50;5322537;26;20426;-93
2024/04/08 02:08:55;;;;;;;0.10;0.10;;;;;;;12.32;62.72;101998.44;5380481;26;20008;-92
2024/04/08 02:11:21;;;;;;;0.20;0.20;;;;;;;12.34;63.07;101991.44;5351082;26;20047;-90
2024/04/08 02:13:46;;;;;;;0.10;0.10;;;;;;;12.35;63.03;101987.94;5380754;26;19996;-92
2024/04/08 02:16:12;;;;;;;0.10;0.10;;;;;;;12.50;62.54;101994.34;5351446;26;20074;-91
2024/04/08 02:18:37;;;;;;;0.10;0.10;;;;;;;12.39;62.38;101999.06;5351194;26;20007;-94
2024/04/08 02:21:03;;;;;;;0.13;0.13;;;;;;;12.37;63.01;102002.59;5351522;26;20077;-91
2024/04/08 02:23:28;;;;;;;0.10;0.10;;;;;;;12.35;62.99;102002.66;5380231;26;20047;-92
2024/04/08 02:25:54;;;;;;;0.10;0.10;;;;;;;12.31;63.42;102001.09;5322287;26;20074;-91
2024/04/08 02:28:19;;;;;;;0.10;0.10;;;;;;;12.30;63.11;101999.38;5351570;26;20062;-92
2024/04/08 02:30:45;;;;;;;0.10;0.10;;;;;;;12.27;63.40;102002.91;5351438;26;20004;-90
2024/04/08 02:33:10;;;;;;;0.10;0.10;;;;;;;12.33;62.56;102018.28;5380628;26;20330;-93
2024/04/08 02:35:37;;;;;;;0.10;0.10;;;;;;;12.32;61.72;102019.19;5322675;26;20008;-91
2024/04/08 02:38:04;;;;;;;0.10;0.10;;;;;;;12.34;61.54;102019.97;5410033;26;20000;-92
2024/04/08 02:40:33;;;;;;;0.10;0.10;;;;;;;12.14;62.16;102009.44;5323468;26;20008;-92
2024/04/08 02:42:59;;;;;;;0.20;0.20;;;;;;;12.07;62.62;102010.53;5351562;26;20000;-92
2024/04/08 02:45:25;;;;;;;0.10;0.10;;;;;;;12.08;62.40;102027.78;5409996;26;20007;-92
2024/04/08 02:47:50;;;;;;;0.10;0.10;;;;;;;11.83;62.72;102008.75;5380093;26;20000;-92
2024/04/08 02:50:16;;;;;;;0.10;0.10;;;;;;;11.72;63.34;102025.47;5380276;26;20012;-92
2024/04/08 02:52:42;;;;;;;0.10;0.10;;;;;;;11.57;63.77;102023.31;5379949;26;20066;-91
2024/04/08 02:55:07;;;;;;;0.10;0.10;;;;;;;11.44;64.08;102022.88;5322305;26;20022;-92
2024/04/08 02:57:33;;;;;;;0.13;0.13;;;;;;;11.43;64.24;102035.88;5381697;26;19996;-92
2024/04/08 02:59:58;;;;;;;0.10;0.10;;;;;;;11.41;64.27;102040.25;5350600;26;20011;-89
2024/04/08 03:02:24;;;;;;;0.20;0.20;;;;;;;11.42;64.42;102023.81;5379073;26;20433;-89
2024/04/08 03:04:53;;;;;;;0.20;0.20;;;;;;;11.42;64.69;102023.81;5349714;26;20007;-91
2024/04/08 03:07:18;;;;;;;0.10;0.10;;;;;;;11.49;64.70;102033.06;5349032;26;20444;-89
2024/04/08 03:09:49;;;;;;;0.10;0.10;;;;;;;11.53;64.59;102037.28;5320896;26;19997;-90
2024/04/08 03:12:15;;;;;;;0.20;0.20;;;;;;;11.64;64.65;102037.81;5321165;26;19996;-89
2024/04/08 03:14:41;;;;;;;0.10;0.10;;;;;;;11.56;65.23;102032.00;5349378;26;20007;-89
2024/04/08 03:17:06;;;;;;;0.10;0.10;;;;;;;11.46;65.11;101996.91;5349516;26;19996;-90
2024/04/08 03:19:32;;;;;;;0.10;0.10;;;;;;;11.67;65.19;102037.69;5349495;26;20000;-91
2024/04/08 03:21:57;;;;;;;0.10;0.10;;;;;;;11.65;64.87;102029.13;5349574;26;20012;-90
2024/04/08 03:24:23;;;;;;;0.10;0.10;;;;;;;11.66;65.29;102037.75;5352825;26;20012;-89
2024/04/08 03:26:48;;;;;;;0.10;0.10;;;;;;;11.83;65.07;102047.63;5323511;26;20001;-90
2024/04/08 03:29:14;;;;;;;0.10;0.10;;;;;;;11.84;64.94;102042.41;5344743;26;20000;-92
2024/04/08 03:31:39;;;;;;;0.10;0.10;;;;;;;11.84;65.19;102044.16;5359222;26;20435;-92
2024/04/08 03:34:05;;;;;;;0.10;0.10;;;;;;;11.92;64.86;102052.53;5388128;26;20734;-88
2024/04/08 03:36:31;;;;;;;0.15;0.15;;;;;;;11.87;65.22;102049.22;5387890;26;20383;-92
2024/04/08 03:38:56;;;;;;;0.10;0.10;;;;;;;11.90;64.57;102051.75;5359349;26;20412;-92
2024/04/08 03:41:22;;;;;;;0.20;0.20;;;;;;;11.84;65.20;102057.09;5388595;26;20022;-90
2024/04/08 03:43:47;;;;;;;0.10;0.10;;;;;;;11.93;64.94;102056.81;5388098;26;20149;-91
2024/04/08 03:46:13;;;;;;;0.10;0.10;;;;;;;11.69;65.04;102032.47;5387859;26;20434;-92
2024/04/08 03:48:38;;;;;;;0.20;0.20;;;;;;;11.72;65.41;102056.56;5387807;26;20000;-91
2024/04/08 03:51:10;;;;;;;0.10;0.10;;;;;;;11.72;65.42;102060.91;5387388;26;20011;-89
2024/04/08 03:53:36;;;;;;;0.20;0.20;;;;;;;11.73;65.58;102060.84;5387395;26;20007;-91
2024/04/08 03:56:06;;;;;;;0.10;0.10;;;;;;;11.68;65.47;102051.50;5387089;26;20073;-91
2024/04/08 03:58:31;;;;;;;0.17;0.17;;;;;;;11.74;65.38;102059.94;5416680;26;20007;-90
2024/04/08 04:00:57;;;;;;;0.10;0.10;;;;;;;11.67;65.72;102060.19;5387195;26;19995;-89
2024/04/08 04:03:22;;;;;;;0.10;0.10;;;;;;;11.70;65.43;102065.25;5358035;26;20011;-90
2024/04/08 04:05:48;;;;;;;0.10;0.10;;;;;;;11.55;65.95;102066.59;5386376;26;20068;-89
2024/04/08 04:08:13;;;;;;;0.10;0.10;;;;;;;11.58;65.77;102074.25;5357810;26;20453;-91
2024/04/08 04:10:39;;;;;;;0.10;0.10;;;;;;;11.57;65.76;102067.38;5386784;26;20010;-91
2024/04/08 04:13:04;;;;;;;0.10;0.10;;;;;;;11.41;65.43;102058.41;5392396;26;19997;-88
2024/04/08 04:15:30;;;;;;;0.15;0.15;;;;;;;11.37;66.30;102067.13;5356202;26;19995;-92
2024/04/08 04:17:55;;;;;;;0.10;0.10;;;;;;;11.33;66.71;102065.53;5326644;26;20003;-88
2024/04/08 04:20:21;;;;;;;0.10;0.10;;;;;;;11.36;66.69;102068.03;5410551;26;20014;-83
2024/04/08 04:22:47;;;;;;;0.10;0.10;;;;;;;11.45;66.24;102071.19;5386355;26;20472;-87
2024/04/08 04:25:12;;;;;;;0.10;0.10;;;;;;;11.45;66.21;102065.16;5380245;26;20000;-89
2024/04/08 04:27:38;;;;;;;0.10;0.10;;;;;;;11.40;66.88;102061.84;5375201;26;20445;-85
2024/04/08 04:30:04;;;;;;;0.10;0.10;;;;;;;11.54;66.76;102080.44;5414329;26;20015;-92
2024/04/08 04:32:29;;;;;;;0.10;0.10;;;;;;;11.49;67.46;102075.38;5359422;26;20012;-93
2024/04/08 04:34:55;;;;;;;0.10;0.10;;;;;;;11.55;67.31;102074.38;5406187;26;20084;-92
2024/04/08 04:37:21;;;;;;;0.10;0.10;;;;;;;11.62;66.87;102062.94;5338836;26;20043;-90
2024/04/08 04:39:46;;;;;;;0.10;0.10;;;;;;;11.71;66.77;102074.75;5386382;26;20441;-86
2024/04/08 04:42:13;;;;;;;0.10;0.10;;;;;;;11.78;66.57;102077.09;5385676;26;20349;-87
2024/04/08 04:44:38;;;;;;;0.10;0.10;;;;;;;11.83;66.60;102079.59;5385450;26;19996;-86
2024/04/08 04:47:04;;;;;;;0.10;0.10;;;;;;;11.85;66.64;102080.41;5379859;26;20440;-87
2024/04/08 04:49:29;;;;;;;0.10;0.10;;;;;;;11.87;66.71;102082.94;5350438;26;20007;-86
2024/04/08 04:51:55;;;;;;;0.10;0.10;;;;;;;11.88;66.77;102074.25;5378490;26;20000;-89
2024/04/08 04:54:20;;;;;;;0.10;0.10;;;;;;;11.95;67.10;102074.03;5395874;26;20321;-90
2024/04/08 04:56:46;;;;;;;0.10;0.10;;;;;;;12.14;67.23;102087.25;5388350;26;19995;-90
2024/04/08 04:59:12;;;;;;;0.10;0.10;;;;;;;12.28;68.30;102087.63;5359906;26;20012;-81
2024/04/08 05:01:37;;;;;;;0.10;0.10;;;;;;;12.48;69.98;102099.09;5282517;26;20002;-88
2024/04/08 05:04:04;;;;;;;0.10;0.10;;;;;;;12.53;69.79;102094.63;5244345;27;20441;-88
2024/04/08 05:06:30;;;;;;;0.10;0.10;;;;;;;12.41;69.52;102079.47;5245067;27;20340;-84
2024/04/08 05:08:57;;;;;;;0.20;0.20;;;;;;;12.40;68.99;102089.00;5269767;27;20007;-85
2024/04/08 05:11:23;;;;;;;0.10;0.10;;;;;;;12.46;69.00;102095.72;5213490;27;20086;-91
2024/04/08 05:13:48;;;;;;;0.10;0.10;;;;;;;12.38;70.24;102072.63;5221857;27;20010;-89
2024/04/08 05:16:14;;;;;;;0.10;0.10;;;;;;;12.45;67.78;102075.88;5245940;27;19994;-83
2024/04/08 05:18:39;;;;;;;0.10;0.10;;;;;;;12.67;66.85;102097.59;5280327;27;20165;-85
2024/04/08 05:21:05;;;;;;;0.10;0.10;;;;;;;12.77;66.41;102104.16;5298004;26;20017;-83
2024/04/08 05:23:31;;;;;;;0.10;0.10;;;;;;;12.79;65.77;102099.78;5242640;27;20504;-83
2024/04/08 05:25:56;;;;;;;0.10;0.10;;;;;;;12.90;64.82;102097.66;5244091;27;20002;-81
2024/04/08 05:28:22;;;;;;;0.10;0.10;;;;;;;12.91;65.50;102107.16;5244484;27;20002;-87
2024/04/08 05:30:48;;;;;;;0.20;0.20;;;;;;;12.93;65.78;102099.28;5273158;27;20006;-86
2024/04/08 05:33:14;;;;;;;0.10;0.10;;;;;;;12.94;65.25;102093.19;5243711;27;20156;-87
2024/04/08 05:35:40;;;;;;;0.10;0.10;;;;;;;13.08;64.81;102113.50;5253689;27;20437;-89
2024/04/08 05:38:09;;;;;;;0.10;0.10;;;;;;;13.05;64.50;102108.41;5247500;27;21525;-84
2024/04/08 05:40:35;;;;;;;0.20;0.20;;;;;;;13.21;64.62;102117.38;5274858;27;20025;-86
2024/04/08 05:43:01;;;;;;;0.20;0.20;;;;;;;13.26;64.15;102102.44;5246593;27;19998;-87
2024/04/08 05:45:27;;;;;;;0.10;0.10;;;;;;;13.36;63.69;102116.81;5245989;27;20021;-83
2024/04/08 05:47:55;;;;;;;0.20;0.20;;;;;;;13.44;63.55;102126.94;5276845;27;20002;-88
2024/04/08 05:50:21;;;;;;;0.10;0.10;;;;;;;13.59;63.43;102130.72;5247996;27;21392;-90
2024/04/08 05:52:46;;;;;;;0.20;0.20;;;;;;;13.54;63.21;102124.84;5249762;27;20017;-92
2024/04/08 05:55:12;;;;;;;0.10;0.10;;;;;;;13.65;63.27;102133.06;5246478;27;20021;-82
2024/04/08 05:57:38;;;;;;;0.10;0.10;;;;;;;13.62;63.84;102130.59;5274855;27;20006;-86
2024/04/08 06:00:04;;;;;;;0.10;0.10;;;;;;;13.68;64.08;102132.97;5273191;27;20002;-87
2024/04/08 06:02:30;;;;;;;0.10;0.10;;;;;;;13.66;65.25;102137.38;5273925;27;20109;-87
2024/04/08 06:04:56;;;;;;;0.10;0.10;;;;;;;13.70;65.50;102128.56;5210871;27;20034;-88
2024/04/08 06:07:22;;;;;;;0.20;0.20;;;;;;;13.64;65.06;102132.22;5331527;26;20013;-84
2024/04/08 06:09:47;;;;;;;0.20;0.20;;;;;;;13.70;65.19;102128.56;5272975;27;20076;-89
2024/04/08 06:12:13;;;;;;;0.10;0.10;;;;;;;13.88;65.45;102124.41;5246781;27;19998;-85
2024/04/08 06:14:38;;;;;;;0.20;0.20;;;;;;;14.05;64.20;102132.38;5253586;27;20046;-91
2024/04/08 06:17:04;;;;;;;0.20;0.20;;;;;;;14.20;64.21;102133.53;5265596;27;20014;-92
2024/04/08 06:19:31;;;;;;;0.20;0.20;;;;;;;14.28;62.64;102129.72;5277951;27;20038;-89
2024/04/08 06:21:57;;;;;;;0.20;0.20;;;;;;;14.12;62.58;102125.19;5272382;27;20002;-85
2024/04/08 06:24:24;;;;;;;0.20;0.20;;;;;;;14.18;62.63;102127.56;5274408;27;20645;-88
2024/04/08 06:26:50;;;;;;;0.20;0.20;;;;;;;14.33;62.24;102134.72;5272534;27;20086;-84
2024/04/08 06:29:15;;;;;;;0.10;0.10;;;;;;;14.48;62.70;102126.34;5267644;27;20442;-85
2024/04/08 06:31:41;;;;;;;0.20;0.20;;;;;;;14.69;61.54;102123.75;5273207;27;20388;-86
2024/04/08 06:34:06;;;;;;;0.10;0.10;;;;;;;14.77;61.04;102137.28;5273587;27;20421;-88
2024/04/08 06:36:32;;;;;;;0.20;0.20;;;;;;;14.73;61.12;102130.50;5244371;27;20010;-88
2024/04/08 06:38:58;;;;;;;0.20;0.20;;;;;;;14.77;60.83;102134.69;5242611;27;20025;-87
2024/04/08 06:41:23;;;;;;;0.10;0.10;;;;;;;14.74;60.47;102119.16;5261056;27;20021;-85
2024/04/08 06:43:49;;;;;;;0.20;0.20;;;;;;;15.01;61.48;102127.56;5281683;27;20003;-92
2024/04/08 06:46:14;;;;;;;0.15;0.15;;;;;;;15.07;59.24;102132.53;5213020;27;20077;-92
2024/04/08 06:48:40;;;;;;;0.20;0.20;;;;;;;15.20;59.69;102134.50;5226133;27;20010;-90
2024/04/08 06:51:05;;;;;;;0.10;0.10;;;;;;;15.32;59.22;102124.44;5219131;27;20010;-89
2024/04/08 06:53:31;;;;;;;0.10;0.10;;;;;;;15.39;58.46;102126.72;5273910;27;20005;-89
2024/04/08 06:55:56;;;;;;;0.20;0.20;;;;;;;15.49;57.92;102129.75;5245405;27;20009;-88
2024/04/08 06:58:25;;;;;;;0.20;0.20;;;;;;;15.54;57.35;102133.00;5251930;27;20006;-94
2024/04/08 07:00:50;;;;;;;0.13;0.13;;;;;;;15.42;57.04;102128.31;5225606;27;20014;-88
2024/04/08 07:03:16;;;;;;;0.10;0.10;;;;;;;15.68;57.12;102135.00;5247927;27;20014;-89
2024/04/08 07:05:41;;;;;;;0.20;0.20;;;;;;;15.66;56.67;102129.84;5268144;27;20002;-89
2024/04/08 07:08:07;;;;;;;0.20;0.20;;;;;;;15.70;56.51;102125.34;5248610;27;20683;-84
2024/04/08 07:10:35;;;;;;;0.10;0.10;;;;;;;15.90;56.21;102127.84;5220993;27;20074;-86
2024/04/08 07:13:00;;;;;;;0.10;0.10;;;;;;;16.19;56.65;102134.28;5256005;27;20080;-92
2024/04/08 07:15:26;;;;;;;0.20;0.20;;;;;;;16.40;55.81;102134.16;5250734;27;20440;-91
2024/04/08 07:17:52;;;;;;;0.20;0.20;;;;;;;16.48;55.96;102132.00;5246028;27;20005;-84
2024/04/08 07:20:17;;;;;;;0.20;0.20;;;;;;;16.51;55.42;102124.84;5243498;27;19998;-85
2024/04/08 07:22:43;;;;;;;0.20;0.20;;;;;;;16.61;56.03;102135.69;5277056;27;20009;-91
2024/04/08 07:25:08;;;;;;;0.20;0.20;;;;;;;16.61;55.28;102112.19;5277895;27;20002;-90
2024/04/08 07:27:35;;;;;;;0.15;0.15;;;;;;;16.89;55.15;102133.41;5276639;27;20006;-87
2024/04/08 07:30:03;;;;;;;0.20;0.20;;;;;;;17.08;54.88;102140.28;5279764;27;19999;-92
2024/04/08 07:32:29;;;;;;;0.10;0.10;;;;;;;17.28;54.26;102139.25;5270398;27;20013;-85
2024/04/08 07:34:55;;;;;;;0.10;0.10;;;;;;;17.22;54.43;102123.91;5235127;27;20551;-85
2024/04/08 07:37:21;;;;;;;0.20;0.20;;;;;;;17.41;53.60;102130.69;5248451;27;20005;-91
2024/04/08 07:39:46;;;;;;;0.10;0.10;;;;;;;17.43;53.37;102122.75;5219810;27;20114;-91
2024/04/08 07:42:12;;;;;;;0.20;0.20;;;;;;;17.62;53.08;102122.59;5248085;27;20021;-88
2024/04/08 07:44:38;;;;;;;0.10;0.10;;;;;;;17.86;52.97;102125.66;5248219;27;20081;-92
2024/04/08 07:47:04;;;;;;;0.20;0.20;;;;;;;18.01;51.99;102125.66;5242503;27;20003;-86
2024/04/08 07:49:29;;;;;;;0.10;0.10;;;;;;;18.13;51.11;102112.78;5242941;27;20425;-86
2024/04/08 07:51:55;;;;;;;0.10;0.10;;;;;;;18.30;51.24;102120.53;5292062;27;20080;-84
2024/04/08 07:54:20;;;;;;;0.10;0.10;;;;;;;18.50;51.26;102128.06;5278222;27;20014;-84
2024/04/08 07:56:46;;;;;;;0.20;0.20;;;;;;;18.54;51.06;102113.84;5246281;27;20436;-85
2024/04/08 07:59:11;;;;;;;0.20;0.20;;;;;;;18.71;52.67;102125.16;5276305;27;20383;-89
2024/04/08 08:01:37;;;;;;;0.20;0.20;;;;;;;18.79;50.28;102112.44;5275670;27;20430;-86
2024/04/08 08:04:02;;;;;;;0.20;0.20;;;;;;;18.97;49.85;102111.28;5239667;26;19998;-86
2024/04/08 08:06:28;;;;;;;0.20;0.20;;;;;;;19.04;49.86;102110.00;5309990;27;20009;-86
2024/04/08 08:08:54;;;;;;;0.20;0.20;;;;;;;19.26;49.62;102106.88;5338539;26;20356;-91
2024/04/08 08:11:20;;;;;;;0.10;0.10;;;;;;;19.40;49.56;102101.66;5309027;27;20017;-82
2024/04/08 08:13:45;;;;;;;0.20;0.20;;;;;;;19.51;48.42;102100.97;5292504;27;20328;-88
2024/04/08 08:16:11;;;;;;;0.20;0.20;;;;;;;19.61;48.94;102093.38;5279960;27;20424;-85
2024/04/08 08:18:36;;;;;;;0.20;0.20;;;;;;;19.85;48.18;102093.56;5308886;27;20766;-89
2024/04/08 08:21:02;;;;;;;0.10;0.10;;;;;;;20.07;47.09;102096.50;5281293;27;20036;-85
2024/04/08 08:23:28;;;;;;;0.20;0.20;;;;;;;20.16;47.00;102089.81;5308904;27;20071;-85
2024/04/08 08:25:53;;;;;;;0.10;0.10;;;;;;;20.33;46.67;102085.09;5313879;27;20092;-88
2024/04/08 08:28:20;;;;;;;0.20;0.20;;;;;;;20.48;46.37;102088.53;5232962;27;20006;-91
2024/04/08 08:30:46;;;;;;;0.20;0.20;;;;;;;20.71;45.90;102094.00;5309227;27;20012;-82
2024/04/08 08:33:12;;;;;;;0.20;0.20;;;;;;;20.83;45.56;102094.00;5281242;27;20001;-84
2024/04/08 08:35:37;;;;;;;0.20;0.20;;;;;;;20.95;45.06;102088.84;5307004;26;20025;-85
2024/04/08 08:38:03;;;;;;;0.20;0.20;;;;;;;20.99;44.57;102074.53;5309479;27;20328;-89
2024/04/08 08:40:29;;;;;;;0.20;0.20;;;;;;;20.83;44.40;102069.47;5300721;27;20006;-83
2024/04/08 08:42:56;;;;;;;0.20;0.20;;;;;;;21.11;45.10;102079.75;5275554;27;20014;-85
2024/04/08 08:45:21;;;;;;;0.10;0.10;;;;;;;21.22;44.72;102073.75;5260336;27;20006;-92
2024/04/08 08:47:47;;;;;;;0.20;0.20;;;;;;;21.33;44.67;102073.84;5301949;27;20006;-93
2024/04/08 08:50:12;;;;;;;0.20;0.20;;;;;;;21.58;43.54;102074.72;5280170;27;20002;-84
2024/04/08 08:52:38;;;;;;;0.20;0.20;;;;;;;21.64;43.41;102074.28;5307319;27;20014;-87
2024/04/08 08:55:04;;;;;;;0.20;0.20;;;;;;;21.77;43.08;102065.38;5303492;27;20012;-88
2024/04/08 08:57:30;;;;;;;0.20;0.20;;;;;;;21.83;42.87;102069.38;5281096;27;20012;-81
2024/04/08 08:59:55;;;;;;;0.20;0.20;;;;;;;21.96;42.86;102066.66;5261112;27;20034;-92
2024/04/08 09:02:21;;;;;;;0.20;0.20;;;;;;;22.10;42.26;102063.00;5307290;27;19998;-91
2024/04/08 09:04:46;;;;;;;0.20;0.20;;;;;;;22.08;42.17;102051.75;5290094;27;20017;-88
2024/04/08 09:07:12;;;;;;;0.10;0.10;;;;;;;22.13;42.56;102052.25;5276602;27;19994;-85
2024/04/08 09:09:38;;;;;;;0.20;0.20;;;;;;;22.15;42.07;102047.69;5275591;27;20483;-85
2024/04/08 09:12:03;;;;;;;0.20;0.20;;;;;;;22.38;41.89;102065.25;5276816;27;20340;-89
2024/04/08 09:14:30;;;;;;;0.20;0.20;;;;;;;22.61;41.68;102061.69;5275326;27;20003;-91
2024/04/08 09:17:08;;;;;;;0.20;0.20;;;;;;;22.83;40.77;102057.41;5241875;27;19999;-92
2024/04/08 09:19:33;;;;;;;0.20;0.20;;;;;;;22.86;40.08;102043.97;5264922;27;20003;-86
2024/04/08 09:21:59;;;;;;;0.20;0.20;;;;;;;22.88;40.17;102034.97;5240345;27;20014;-85
2024/04/08 09:24:24;;;;;;;0.20;0.20;;;;;;;23.12;40.49;102044.56;5268820;27;20006;-87
2024/04/08 09:26:52;;;;;;;0.20;0.20;;;;;;;23.30;39.62;102036.97;5263810;27;20524;-86
2024/04/08 09:29:17;;;;;;;0.20;0.20;;;;;;;23.34;40.61;102030.47;5230805;27;20368;-88
2024/04/08 09:31:43;;;;;;;0.20;0.20;;;;;;;23.57;40.73;102025.97;5214084;27;20035;-93
2024/04/08 09:34:09;;;;;;;0.20;0.20;;;;;;;23.59;38.44;102030.19;5241151;27;20017;-84
2024/04/08 09:36:34;;;;;;;0.20;0.20;;;;;;;23.60;37.93;102010.75;5246611;27;20539;-86
2024/04/08 09:39:01;;;;;;;0.20;0.20;;;;;;;23.61;39.02;101988.66;5274556;27;20432;-91
2024/04/08 09:41:26;;;;;;;0.20;0.20;;;;;;;23.81;38.71;102009.94;5243178;27;20003;-86
2024/04/08 09:43:52;;;;;;;0.20;0.20;;;;;;;23.98;37.77;102007.53;5244178;27;20013;-91
2024/04/08 09:46:18;;;;;;;0.20;0.20;;;;;;;24.08;37.52;102007.59;5228480;27;20002;-86
2024/04/08 09:48:44;;;;;;;0.20;0.20;;;;;;;23.92;37.47;101994.84;5196156;27;20003;-92
2024/04/08 09:51:09;;;;;;;0.20;0.20;;;;;;;23.99;37.60;102011.03;5211299;27;20022;-85
2024/04/08 09:53:35;;;;;;;0.20;0.20;;;;;;;23.95;37.61;102014.91;5225422;27;20003;-92
2024/04/08 09:56:05;;;;;;;0.20;0.20;;;;;;;23.99;37.20;102000.44;5202374;27;20010;-89
2024/04/08 09:58:32;;;;;;;0.20;0.20;;;;;;;24.01;36.60;102007.31;5240517;27;20022;-92
2024/04/08 10:00:59;;;;;;;0.20;0.20;;;;;;;24.21;36.51;102002.97;5242999;27;20085;-89
2024/04/08 10:03:25;;;;;;;0.20;0.20;;;;;;;24.17;35.98;102000.72;5226261;27;20083;-94
2024/04/08 10:05:51;;;;;;;0.20;0.20;;;;;;;24.15;36.22;101966.47;5204193;27;20440;-87
2024/04/08 10:08:16;;;;;;;0.20;0.20;;;;;;;24.58;35.58;101994.53;5243131;27;20007;-91
2024/04/08 10:10:42;;;;;;;0.20;0.20;;;;;;;24.49;34.92;101985.63;5246163;27;19994;-91
2024/04/08 10:13:09;;;;;;;0.20;0.20;;;;;;;24.48;34.69;101972.50;5247259;27;20460;-85
2024/04/08 10:15:36;;;;;;;0.20;0.20;;;;;;;24.46;35.38;101982.38;5268038;27;20444;-91
2024/04/08 10:18:03;;;;;;;0.20;0.20;;;;;;;24.48;35.38;101967.22;5278054;27;20072;-92
2024/04/08 10:20:28;;;;;;;0.20;0.20;;;;;;;24.44;34.55;101960.53;5221221;27;20325;-90
2024/04/08 10:22:54;;;;;;;0.20;0.20;;;;;;;24.57;35.91;101955.81;5275337;27;20014;-95
2024/04/08 10:25:38;;;;;;;0.20;0.20;;;;;;;24.83;34.52;101959.69;5242574;27;20437;-86
2024/04/08 10:28:09;;;;;;;0.20;0.20;;;;;;;24.88;34.27;101959.28;5273893;27;20089;-92
2024/04/08 10:30:39;;;;;;;0.20;0.20;;;;;;;25.04;35.26;101956.13;5275652;27;20014;-91
2024/04/08 10:33:05;;;;;;;0.20;0.20;;;;;;;24.98;33.98;101954.84;5245901;27;20030;-88
2024/04/08 10:35:30;;;;;;;0.20;0.20;;;;;;;25.06;33.63;101946.22;5217997;27;20009;-86
2024/04/08 10:37:56;;;;;;;0.20;0.20;;;;;;;25.17;33.40;101954.03;5246534;27;20302;-89
2024/04/08 10:40:22;;;;;;;0.20;0.20;;;;;;;25.24;33.09;101939.28;5275938;27;20350;-86
2024/04/08 10:42:50;;;;;;;0.20;0.20;;;;;;;25.25;34.35;101940.13;5274135;27;20017;-84
2024/04/08 10:45:19;;;;;;;0.20;0.20;;;;;;;25.31;33.33;101932.47;5246737;27;20503;-91
2024/04/08 10:47:48;;;;;;;0.20;0.20;;;;;;;25.48;33.67;101932.75;5240857;27;20520;-91
2024/04/08 10:50:14;;;;;;;0.20;0.20;;;;;;;25.43;33.62;101927.84;5229812;27;20002;-85
2024/04/08 10:52:40;;;;;;;0.20;0.20;;;;;;;25.59;32.27;101927.28;5273643;27;20006;-89
2024/04/08 10:55:08;;;;;;;0.20;0.20;;;;;;;25.62;32.89;101911.09;5273766;27;20006;-92
2024/04/08 10:57:34;;;;;;;0.20;0.20;;;;;;;25.80;32.46;101914.72;5240630;27;20014;-86
2024/04/08 11:00:05;;;;;;;0.20;0.20;;;;;;;25.80;32.38;101911.25;5240468;27;20003;-89
2024/04/08 11:02:32;;;;;;;0.20;0.20;;;;;;;26.06;31.49;101907.00;5219912;27;20002;-89
2024/04/08 11:05:00;;;;;;;0.20;0.20;;;;;;;26.02;30.64;101902.94;5265209;27;20022;-89
2024/04/08 11:07:25;;;;;;;0.20;0.20;;;;;;;25.97;30.26;101903.38;5274842;27;19998;-92
2024/04/08 11:09:51;;;;;;;0.20;0.20;;;;;;;25.93;30.47;101899.34;5218721;27;20013;-86
2024/04/08 11:12:16;;;;;;;0.20;0.20;;;;;;;25.85;30.58;101896.56;5274043;27;19998;-88
2024/04/08 11:14:42;;;;;;;0.20;0.20;;;;;;;25.76;31.47;101885.97;5246012;27;20453;-93
2024/04/08 11:17:11;;;;;;;0.20;0.20;;;;;;;25.83;30.86;101879.13;5240932;27;20017;-83